Terminal Aerodrome Forecast
Issued by NWS

Home | Current Version | Previous Version | Text Only | Print | Product List | Glossary On
Versions: 1 2 3 4 5 6 7 8 9 10 11 12 13 14 15
000
FTAK31 PAJN 120500
TAFAGY
TAF
PAGY 120527Z 1206/1306 20005KT 2SM -RA BR SCT015 OVC025
      TEMPO 1206/1209 6SM -RA BR BKN025 OVC035
     FM120900 20005KT 4SM -RA BR OVC015
     FM122100 21011KT P6SM -RA SCT015 OVC035
      AMD LTD TO CLD VIS AND WIND=

USA.gov is the U.S. government's official web portal to all federal, state and local government web resources and services.